Time;durP1;ratioP1;P1;durP2;ratioP2;P2;SDS_P1;SDS_P2;PMS_P1;PMS_P2;Temp;Humidity;BMP_temperature;BMP_pressure;BME280_temperature;BME280_humidity;BME280_pressure;Samples;Min_cycle;Max_cycle;Signal;HPM_P1;HPM_P2
2023/07/26 00:00:02;;;;;;;2.15;0.82;;;;;;;;;;5074878;28;20051;-77
2023/07/26 00:02:28;;;;;;;0.88;0.88;;;;;;;;;;5074887;28;20036;-77
2023/07/26 00:04:53;;;;;;;1.05;0.90;;;;;;;;;;5073737;28;20032;-77
2023/07/26 00:07:18;;;;;;;0.70;0.70;;;;;;;;;;5073890;28;20438;-77
2023/07/26 00:09:44;;;;;;;1.75;1.00;;;;;;;;;;5073800;28;20080;-77
2023/07/26 00:12:09;;;;;;;0.80;0.80;;;;;;;;;;5075087;28;20040;-77
2023/07/26 00:14:34;;;;;;;1.10;0.95;;;;;;;;;;5074659;28;20028;-77
2023/07/26 00:17:00;;;;;;;1.00;0.90;;;;;;;;;;5074565;28;20036;-77
2023/07/26 00:19:25;;;;;;;0.82;0.82;;;;;;;;;;5074664;28;20036;-77
2023/07/26 00:21:51;;;;;;;0.80;0.80;;;;;;;;;;5074385;28;20108;-77
2023/07/26 00:24:16;;;;;;;1.65;0.98;;;;;;;;;;5074750;28;20498;-78
2023/07/26 00:26:41;;;;;;;1.13;0.93;;;;;;;;;;5074424;28;20028;-77
2023/07/26 00:29:07;;;;;;;1.02;0.98;;;;;;;;;;5056411;28;20039;-77
2023/07/26 00:31:32;;;;;;;0.95;0.90;;;;;;;;;;5056445;28;20029;-77
2023/07/26 00:33:58;;;;;;;1.15;0.98;;;;;;;;;;5073055;28;20540;-77
2023/07/26 00:36:23;;;;;;;1.10;1.00;;;;;;;;;;5074196;28;20070;-77
2023/07/26 00:38:49;;;;;;;0.88;0.80;;;;;;;;;;5072831;28;20032;-78
2023/07/26 00:41:15;;;;;;;4.72;0.93;;;;;;;;;;5072451;28;20037;-77
2023/07/26 00:43:40;;;;;;;1.13;0.80;;;;;;;;;;5073241;28;20082;-77
2023/07/26 00:46:06;;;;;;;1.20;1.10;;;;;;;;;;5074332;28;20031;-77
2023/07/26 00:48:33;;;;;;;1.73;1.10;;;;;;;;;;5073112;28;20060;-77
2023/07/26 00:51:00;;;;;;;1.27;1.13;;;;;;;;;;5073808;28;20032;-77
2023/07/26 00:53:26;;;;;;;3.10;1.00;;;;;;;;;;5056038;28;20127;-77
2023/07/26 00:55:51;;;;;;;1.15;0.98;;;;;;;;;;5074117;28;20060;-77
2023/07/26 00:58:17;;;;;;;0.90;0.90;;;;;;;;;;5073742;28;20028;-77
2023/07/26 01:00:44;;;;;;;1.25;1.00;;;;;;;;;;5072861;28;20379;-77
2023/07/26 01:03:10;;;;;;;1.55;1.20;;;;;;;;;;5073521;28;20020;-76
2023/07/26 01:06:16;;;;;;;1.58;1.13;;;;;;;;;;5073730;28;20040;-77
2023/07/26 01:08:59;;;;;;;1.50;1.00;;;;;;;;;;4992306;28;20129;-77
2023/07/26 01:11:29;;;;;;;1.15;1.08;;;;;;;;;;5084012;28;20384;-77
2023/07/26 01:14:05;;;;;;;2.13;1.13;;;;;;;;;;5072650;28;20028;-77
2023/07/26 01:16:31;;;;;;;2.97;1.10;;;;;;;;;;5055527;28;20029;-77
2023/07/26 01:18:56;;;;;;;1.20;1.00;;;;;;;;;;5072572;28;20055;-77
2023/07/26 01:21:21;;;;;;;1.08;0.90;;;;;;;;;;5073783;28;20422;-77
2023/07/26 01:23:47;;;;;;;1.00;1.00;;;;;;;;;;5073414;28;20037;-77
2023/07/26 01:26:12;;;;;;;1.20;1.10;;;;;;;;;;5072185;28;20372;-77
2023/07/26 01:28:38;;;;;;;0.98;0.93;;;;;;;;;;5055451;28;20028;-78
2023/07/26 01:31:04;;;;;;;2.70;1.00;;;;;;;;;;5073422;28;20035;-78
2023/07/26 01:33:31;;;;;;;1.55;0.88;;;;;;;;;;5073626;28;20382;-78
2023/07/26 01:35:57;;;;;;;1.10;1.00;;;;;;;;;;5072358;28;20051;-77
2023/07/26 01:38:23;;;;;;;3.13;1.10;;;;;;;;;;5072689;28;20032;-77
2023/07/26 01:40:49;;;;;;;2.05;1.10;;;;;;;;;;5071863;28;20052;-77
2023/07/26 01:43:14;;;;;;;2.13;1.20;;;;;;;;;;5072088;28;20435;-77
2023/07/26 01:45:40;;;;;;;1.23;1.13;;;;;;;;;;5073135;28;20032;-77
2023/07/26 01:48:05;;;;;;;3.72;1.02;;;;;;;;;;5073463;28;20031;-77
2023/07/26 01:50:31;;;;;;;1.58;1.00;;;;;;;;;;5055274;28;20094;-76
2023/07/26 01:52:56;;;;;;;2.25;1.17;;;;;;;;;;5073234;28;20452;-77
2023/07/26 01:55:21;;;;;;;1.40;1.10;;;;;;;;;;5077768;28;20086;-77
2023/07/26 01:57:47;;;;;;;1.10;1.00;;;;;;;;;;5077523;28;20035;-77
2023/07/26 02:00:12;;;;;;;2.33;1.33;;;;;;;;;;5077143;28;20511;-77
2023/07/26 02:02:38;;;;;;;1.90;1.05;;;;;;;;;;5077718;28;20024;-76
2023/07/26 02:05:04;;;;;;;1.63;1.13;;;;;;;;;;5077081;28;20032;-77
2023/07/26 02:07:29;;;;;;;2.42;1.30;;;;;;;;;;5077431;28;20067;-77
2023/07/26 02:09:54;;;;;;;1.33;1.20;;;;;;;;;;5076985;28;20438;-77
2023/07/26 02:12:20;;;;;;;0.90;0.90;;;;;;;;;;5076889;28;20036;-76
2023/07/26 02:14:45;;;;;;;1.20;1.10;;;;;;;;;;5075499;28;20081;-76
2023/07/26 02:17:11;;;;;;;1.65;1.20;;;;;;;;;;5077352;28;20383;-76
2023/07/26 02:19:36;;;;;;;1.50;1.10;;;;;;;;;;5076657;28;20485;-76
2023/07/26 02:22:01;;;;;;;2.13;1.10;;;;;;;;;;5076907;28;20033;-76
2023/07/26 02:24:27;;;;;;;1.55;1.30;;;;;;;;;;5076986;28;20112;-76
2023/07/26 02:26:53;;;;;;;3.05;1.20;;;;;;;;;;5076929;28;20052;-77
2023/07/26 02:29:18;;;;;;;1.48;1.20;;;;;;;;;;5075393;28;20028;-76
2023/07/26 02:31:43;;;;;;;2.35;1.25;;;;;;;;;;5058531;28;20036;-76
2023/07/26 02:34:09;;;;;;;1.40;1.10;;;;;;;;;;5059703;28;20157;-76
2023/07/26 02:36:34;;;;;;;2.30;1.27;;;;;;;;;;5076409;28;20028;-77
2023/07/26 02:38:59;;;;;;;1.10;1.00;;;;;;;;;;5076317;28;20055;-77
2023/07/26 02:41:25;;;;;;;3.13;1.20;;;;;;;;;;5075025;28;20032;-77
2023/07/26 02:43:50;;;;;;;2.33;1.63;;;;;;;;;;5076571;28;20028;-77
2023/07/26 02:46:16;;;;;;;1.95;1.30;;;;;;;;;;5074928;28;20118;-77
2023/07/26 02:48:41;;;;;;;2.05;1.17;;;;;;;;;;5075258;28;20037;-78
2023/07/26 02:51:06;;;;;;;1.25;1.00;;;;;;;;;;5074917;28;20039;-77
2023/07/26 02:53:32;;;;;;;1.63;1.25;;;;;;;;;;5076399;28;20036;-77
2023/07/26 02:55:57;;;;;;;2.53;1.63;;;;;;;;;;5058174;28;20029;-77
2023/07/26 02:58:23;;;;;;;2.85;1.65;;;;;;;;;;5074874;28;20072;-77
2023/07/26 03:00:52;;;;;;;1.90;1.30;;;;;;;;;;5075276;28;20108;-77
2023/07/26 03:03:18;;;;;;;1.42;1.20;;;;;;;;;;5074911;28;20031;-77
2023/07/26 03:05:43;;;;;;;1.95;1.30;;;;;;;;;;5074036;28;20036;-77
2023/07/26 03:08:08;;;;;;;1.48;1.00;;;;;;;;;;5074695;28;20483;-77
2023/07/26 03:10:34;;;;;;;2.40;1.02;;;;;;;;;;5075818;28;20071;-77
2023/07/26 03:12:59;;;;;;;1.20;1.05;;;;;;;;;;5075155;28;20024;-76
2023/07/26 03:15:25;;;;;;;1.58;1.42;;;;;;;;;;5075947;28;20364;-77
2023/07/26 03:17:50;;;;;;;1.80;1.30;;;;;;;;;;5075729;28;20021;-77
2023/07/26 03:20:15;;;;;;;1.25;1.10;;;;;;;;;;5074471;28;20533;-77
2023/07/26 03:22:41;;;;;;;1.77;1.20;;;;;;;;;;5074704;28;20028;-76
2023/07/26 03:25:07;;;;;;;1.38;1.27;;;;;;;;;;5074315;28;20085;-76
2023/07/26 03:27:32;;;;;;;1.20;1.00;;;;;;;;;;5074187;28;20032;-76
2023/07/26 03:29:57;;;;;;;1.42;1.10;;;;;;;;;;5057528;28;20365;-77
2023/07/26 03:32:23;;;;;;;3.05;1.10;;;;;;;;;;5075714;28;20028;-76
2023/07/26 03:34:48;;;;;;;1.85;1.20;;;;;;;;;;5075660;28;20486;-76
2023/07/26 03:37:13;;;;;;;5.00;1.42;;;;;;;;;;5074352;28;20097;-77
2023/07/26 03:39:39;;;;;;;2.45;1.13;;;;;;;;;;5073962;28;20479;-77
2023/07/26 03:42:05;;;;;;;2.78;1.20;;;;;;;;;;5073911;28;20391;-77
2023/07/26 03:44:30;;;;;;;2.20;1.23;;;;;;;;;;5057289;28;20039;-77
2023/07/26 03:46:55;;;;;;;1.52;1.42;;;;;;;;;;5075133;28;20106;-77
2023/07/26 03:49:21;;;;;;;1.50;1.13;;;;;;;;;;5073939;28;20032;-77
2023/07/26 03:51:46;;;;;;;2.78;1.30;;;;;;;;;;5056971;28;20039;-77
2023/07/26 03:54:11;;;;;;;2.28;1.35;;;;;;;;;;5075114;28;20037;-77
2023/07/26 03:56:37;;;;;;;2.08;1.30;;;;;;;;;;5073724;28;20056;-79
2023/07/26 03:59:02;;;;;;;2.47;1.40;;;;;;;;;;5056720;28;20086;-77
2023/07/26 04:01:27;;;;;;;1.27;1.17;;;;;;;;;;5073229;28;20052;-79
2023/07/26 04:03:53;;;;;;;1.30;1.17;;;;;;;;;;5056825;28;20036;-77
2023/07/26 04:06:18;;;;;;;3.55;1.55;;;;;;;;;;5075078;28;20111;-77
2023/07/26 04:08:44;;;;;;;2.70;1.65;;;;;;;;;;5075147;28;20036;-77
2023/07/26 04:11:11;;;;;;;5.43;1.60;;;;;;;;;;5073406;28;20053;-77
2023/07/26 04:13:36;;;;;;;3.38;1.52;;;;;;;;;;5073708;28;20055;-77
2023/07/26 04:16:11;;;;;;;1.60;1.45;;;;;;;;;;5089288;28;20048;-77
2023/07/26 04:18:37;;;;;;;1.77;1.50;;;;;;;;;;5075138;28;20025;-79
2023/07/26 04:21:02;;;;;;;1.73;1.30;;;;;;;;;;5073575;28;20039;-77
2023/07/26 04:23:27;;;;;;;4.28;1.58;;;;;;;;;;5074783;28;20032;-79
2023/07/26 04:25:53;;;;;;;1.20;1.10;;;;;;;;;;5073486;28;20071;-78
2023/07/26 04:28:18;;;;;;;1.50;0.93;;;;;;;;;;5073348;28;20037;-78
2023/07/26 04:30:44;;;;;;;1.52;1.30;;;;;;;;;;5074783;28;20020;-79
2023/07/26 04:33:09;;;;;;;2.95;1.10;;;;;;;;;;5073248;28;20060;-79
2023/07/26 04:35:34;;;;;;;1.50;1.40;;;;;;;;;;5074705;28;20032;-79
2023/07/26 04:38:00;;;;;;;2.45;1.48;;;;;;;;;;5073172;28;20067;-79
2023/07/26 04:40:25;;;;;;;2.17;1.70;;;;;;;;;;5073110;28;20498;-78
2023/07/26 04:42:50;;;;;;;1.70;1.00;;;;;;;;;;5072967;28;20044;-79
2023/07/26 04:45:16;;;;;;;1.30;1.20;;;;;;;;;;5056219;28;20036;-79
2023/07/26 04:47:41;;;;;;;1.50;1.35;;;;;;;;;;5072871;28;20051;-79
2023/07/26 04:50:07;;;;;;;2.60;1.40;;;;;;;;;;5074175;28;20112;-79
2023/07/26 04:52:37;;;;;;;1.52;1.38;;;;;;;;;;5074212;28;20383;-79
2023/07/26 04:55:04;;;;;;;1.92;1.13;;;;;;;;;;5074318;28;20043;-79
2023/07/26 04:57:29;;;;;;;2.65;1.60;;;;;;;;;;5074258;28;20085;-79
2023/07/26 04:59:55;;;;;;;2.53;1.20;;;;;;;;;;5073872;28;20442;-78
2023/07/26 05:02:20;;;;;;;1.63;1.17;;;;;;;;;;5072564;28;20032;-79
2023/07/26 05:04:45;;;;;;;2.58;1.10;;;;;;;;;;5073845;28;20028;-79
2023/07/26 05:07:11;;;;;;;1.48;1.38;;;;;;;;;;5074059;28;20033;-76
2023/07/26 05:09:36;;;;;;;2.05;1.20;;;;;;;;;;5074074;28;20029;-77
2023/07/26 05:12:02;;;;;;;1.85;1.27;;;;;;;;;;5073744;28;20024;-78
2023/07/26 05:14:27;;;;;;;2.60;1.55;;;;;;;;;;5073975;28;20391;-78
2023/07/26 05:16:52;;;;;;;2.22;1.45;;;;;;;;;;5072243;28;20035;-78
2023/07/26 05:19:18;;;;;;;3.78;1.52;;;;;;;;;;5073650;28;20111;-79
2023/07/26 05:21:43;;;;;;;1.67;1.58;;;;;;;;;;5073547;28;20035;-78
2023/07/26 05:24:09;;;;;;;1.30;1.20;;;;;;;;;;5073566;28;20035;-78
2023/07/26 05:26:34;;;;;;;2.00;1.20;;;;;;;;;;5072691;28;20123;-78
2023/07/26 05:28:59;;;;;;;2.95;1.40;;;;;;;;;;5073126;28;20029;-78
2023/07/26 05:31:25;;;;;;;1.92;1.50;;;;;;;;;;5073698;28;20020;-78
2023/07/26 05:33:50;;;;;;;1.83;1.20;;;;;;;;;;5072211;28;20052;-78
2023/07/26 05:36:15;;;;;;;4.20;1.20;;;;;;;;;;5072439;28;20035;-77
2023/07/26 05:38:41;;;;;;;1.40;1.20;;;;;;;;;;5073650;28;20029;-77
2023/07/26 05:41:06;;;;;;;1.80;1.45;;;;;;;;;;5071980;28;20024;-78
2023/07/26 05:43:32;;;;;;;3.05;1.45;;;;;;;;;;5073556;28;20077;-78
2023/07/26 05:45:57;;;;;;;1.67;1.52;;;;;;;;;;5072036;28;20399;-78
2023/07/26 05:48:23;;;;;;;2.38;1.65;;;;;;;;;;5072049;28;20024;-79
2023/07/26 05:50:48;;;;;;;2.90;1.50;;;;;;;;;;5073475;28;20525;-76
2023/07/26 05:53:14;;;;;;;2.10;1.30;;;;;;;;;;5072322;28;20395;-77
2023/07/26 05:55:39;;;;;;;2.75;1.70;;;;;;;;;;5073370;28;20130;-78
2023/07/26 05:58:05;;;;;;;1.85;1.60;;;;;;;;;;5073118;28;20039;-77
2023/07/26 06:00:31;;;;;;;2.90;1.70;;;;;;;;;;5073141;28;20032;-77
2023/07/26 06:02:56;;;;;;;2.17;1.50;;;;;;;;;;5071870;28;20032;-77
2023/07/26 06:05:22;;;;;;;8.43;1.60;;;;;;;;;;5071904;28;20032;-77
2023/07/26 06:07:49;;;;;;;1.88;1.60;;;;;;;;;;5073343;28;20474;-77
2023/07/26 06:10:15;;;;;;;4.93;1.60;;;;;;;;;;5073028;28;20060;-77
2023/07/26 06:12:40;;;;;;;1.98;1.50;;;;;;;;;;5073397;28;20576;-78
2023/07/26 06:15:06;;;;;;;4.40;1.70;;;;;;;;;;5073024;28;20108;-77
2023/07/26 06:17:31;;;;;;;2.20;1.33;;;;;;;;;;5071813;28;20056;-77
2023/07/26 06:19:57;;;;;;;3.75;1.30;;;;;;;;;;5071760;28;20029;-77
2023/07/26 06:22:22;;;;;;;2.47;1.48;;;;;;;;;;5072965;28;20468;-77
2023/07/26 06:24:47;;;;;;;2.13;1.40;;;;;;;;;;5071702;28;20033;-77
2023/07/26 06:27:13;;;;;;;3.15;1.48;;;;;;;;;;5072945;28;20028;-76
2023/07/26 06:29:38;;;;;;;1.83;1.40;;;;;;;;;;5071680;28;20082;-77
2023/07/26 06:32:04;;;;;;;4.25;1.67;;;;;;;;;;5072128;28;20111;-76
2023/07/26 06:34:29;;;;;;;2.95;1.30;;;;;;;;;;5073331;28;20028;-77
2023/07/26 06:36:55;;;;;;;1.63;1.17;;;;;;;;;;5073414;28;20426;-75
2023/07/26 06:39:20;;;;;;;5.28;1.50;;;;;;;;;;5072415;28;20540;-77
2023/07/26 06:41:46;;;;;;;2.80;1.45;;;;;;;;;;5075377;28;20020;-77
2023/07/26 06:44:11;;;;;;;2.45;1.48;;;;;;;;;;5076491;28;20475;-77
2023/07/26 06:46:38;;;;;;;1.77;1.40;;;;;;;;;;5076668;28;20029;-77
2023/07/26 06:49:04;;;;;;;3.28;1.92;;;;;;;;;;5076937;28;20097;-77
2023/07/26 06:51:29;;;;;;;5.47;1.67;;;;;;;;;;5076830;28;20112;-77
2023/07/26 06:53:55;;;;;;;1.40;1.30;;;;;;;;;;5076843;28;20024;-77
2023/07/26 06:56:20;;;;;;;3.97;1.50;;;;;;;;;;5058336;28;20032;-76
2023/07/26 06:58:45;;;;;;;3.38;1.55;;;;;;;;;;5076185;28;20032;-77
2023/07/26 07:01:17;;;;;;;2.03;1.20;;;;;;;;;;5076315;28;20375;-77
2023/07/26 07:03:42;;;;;;;2.80;1.40;;;;;;;;;;5076143;28;20525;-77
2023/07/26 07:06:08;;;;;;;1.60;1.23;;;;;;;;;;5075961;28;20028;-77
2023/07/26 07:08:33;;;;;;;2.20;1.10;;;;;;;;;;5076045;28;20032;-78
2023/07/26 07:10:59;;;;;;;5.82;1.40;;;;;;;;;;5074901;28;20045;-77
2023/07/26 07:13:24;;;;;;;3.75;1.80;;;;;;;;;;5074622;28;20098;-75
2023/07/26 07:15:50;;;;;;;2.28;1.50;;;;;;;;;;5074937;28;20032;-78
2023/07/26 07:18:15;;;;;;;1.23;1.13;;;;;;;;;;5075209;28;20060;-75
2023/07/26 07:20:41;;;;;;;2.58;1.25;;;;;;;;;;5075979;28;20031;-76
2023/07/26 07:23:06;;;;;;;3.80;1.88;;;;;;;;;;5057859;28;20048;-76
2023/07/26 07:25:32;;;;;;;5.88;2.40;;;;;;;;;;5057785;28;20024;-77
2023/07/26 07:27:57;;;;;;;7.70;2.55;;;;;;;;;;5075830;28;20505;-76
2023/07/26 07:30:22;;;;;;;15.77;2.55;;;;;;;;;;5075681;28;20167;-78
2023/07/26 07:32:48;;;;;;;9.60;2.53;;;;;;;;;;5074448;28;20028;-79
2023/07/26 07:35:13;;;;;;;15.27;3.40;;;;;;;;;;5074539;28;20029;-79
2023/07/26 07:37:39;;;;;;;13.52;3.13;;;;;;;;;;5057619;28;20447;-82
2023/07/26 07:40:07;;;;;;;5.30;2.72;;;;;;;;;;5074575;28;20044;-76
2023/07/26 07:42:32;;;;;;;10.50;3.70;;;;;;;;;;5075726;28;20031;-76
2023/07/26 07:44:58;;;;;;;7.45;3.05;;;;;;;;;;5075752;28;20029;-79
2023/07/26 07:47:24;;;;;;;9.10;2.75;;;;;;;;;;5074606;28;20028;-78
2023/07/26 07:49:49;;;;;;;8.00;2.75;;;;;;;;;;5077117;28;20024;-78
2023/07/26 07:52:14;;;;;;;7.40;2.65;;;;;;;;;;5075452;28;20052;-79
2023/07/26 07:54:40;;;;;;;11.43;2.90;;;;;;;;;;5074024;28;20024;-79
2023/07/26 07:57:06;;;;;;;8.93;2.30;;;;;;;;;;5074042;28;20056;-81
2023/07/26 07:59:31;;;;;;;7.43;2.65;;;;;;;;;;5075942;28;20043;-80
2023/07/26 08:01:56;;;;;;;10.93;2.97;;;;;;;;;;5074102;28;20029;-80
2023/07/26 08:04:22;;;;;;;18.83;2.83;;;;;;;;;;5075189;28;20123;-80
2023/07/26 08:06:47;;;;;;;12.13;2.90;;;;;;;;;;5074990;28;20479;-81
2023/07/26 08:09:13;;;;;;;13.48;2.28;;;;;;;;;;5075591;28;20032;-83
2023/07/26 08:11:38;;;;;;;5.20;1.98;;;;;;;;;;5074842;28;20040;-81
2023/07/26 08:14:04;;;;;;;6.40;2.00;;;;;;;;;;5056958;28;20032;-81
2023/07/26 08:16:29;;;;;;;6.25;2.20;;;;;;;;;;5073606;28;20101;-81
2023/07/26 08:18:54;;;;;;;2.88;1.45;;;;;;;;;;5075085;28;20059;-81
2023/07/26 08:21:20;;;;;;;6.07;1.98;;;;;;;;;;5075058;28;20036;-81
2023/07/26 08:23:45;;;;;;;5.78;1.80;;;;;;;;;;5073458;28;20043;-82
2023/07/26 08:26:11;;;;;;;4.25;1.98;;;;;;;;;;5073434;28;20027;-82
2023/07/26 08:28:36;;;;;;;3.33;1.77;;;;;;;;;;5073265;28;20423;-81
2023/07/26 08:31:02;;;;;;;3.17;1.80;;;;;;;;;;5074733;28;20494;-81
2023/07/26 08:33:27;;;;;;;4.53;1.50;;;;;;;;;;5073519;28;20032;-81
2023/07/26 08:35:53;;;;;;;3.15;1.70;;;;;;;;;;5073255;28;20033;-82
2023/07/26 08:38:18;;;;;;;4.47;1.50;;;;;;;;;;5073339;28;20044;-82
2023/07/26 08:40:48;;;;;;;2.20;1.33;;;;;;;;;;5074210;28;20043;-83
2023/07/26 08:43:15;;;;;;;2.70;1.60;;;;;;;;;;5072984;28;20032;-83
2023/07/26 08:45:43;;;;;;;4.18;1.45;;;;;;;;;;5074473;28;20111;-83
2023/07/26 08:48:09;;;;;;;3.53;1.33;;;;;;;;;;5073195;28;20105;-82
2023/07/26 08:50:35;;;;;;;1.30;1.20;;;;;;;;;;5073001;28;20029;-82
2023/07/26 08:53:04;;;;;;;1.83;1.40;;;;;;;;;;5056182;28;20028;-82
2023/07/26 08:55:30;;;;;;;2.50;1.40;;;;;;;;;;5056018;28;20052;-83
2023/07/26 08:57:55;;;;;;;1.35;1.05;;;;;;;;;;5072673;28;20483;-83
2023/07/26 09:00:20;;;;;;;3.90;1.45;;;;;;;;;;5089482;28;20483;-83
2023/07/26 09:02:47;;;;;;;3.28;1.50;;;;;;;;;;5072145;28;20029;-83
2023/07/26 09:05:12;;;;;;;1.30;1.20;;;;;;;;;;5074561;28;20063;-83
2023/07/26 09:07:38;;;;;;;2.38;1.30;;;;;;;;;;5073486;28;20032;-83
2023/07/26 09:10:03;;;;;;;2.35;1.35;;;;;;;;;;5073601;28;20060;-83
2023/07/26 09:12:29;;;;;;;2.00;1.20;;;;;;;;;;5072815;28;20032;-83
2023/07/26 09:14:59;;;;;;;2.90;1.55;;;;;;;;;;5073950;28;20498;-84
2023/07/26 09:17:38;;;;;;;1.25;0.98;;;;;;;;;;5073919;28;20119;-84
2023/07/26 09:20:19;;;;;;;1.73;1.30;;;;;;;;;;5055548;28;20040;-83
2023/07/26 09:22:44;;;;;;;1.77;1.40;;;;;;;;;;5073023;28;20029;-83
2023/07/26 09:25:10;;;;;;;2.55;1.58;;;;;;;;;;5073893;28;20025;-83
2023/07/26 09:27:51;;;;;;;1.50;1.25;;;;;;;;;;5073632;28;20031;-83
2023/07/26 09:30:20;;;;;;;1.40;1.30;;;;;;;;;;5072562;28;20088;-83
2023/07/26 09:32:46;;;;;;;1.90;1.30;;;;;;;;;;5072640;28;20028;-83
2023/07/26 09:35:11;;;;;;;1.90;1.23;;;;;;;;;;5074034;28;20036;-83
2023/07/26 09:37:37;;;;;;;1.55;1.30;;;;;;;;;;5073504;28;20387;-83
2023/07/26 09:40:03;;;;;;;1.80;1.30;;;;;;;;;;5072268;28;20035;-83
2023/07/26 09:42:42;;;;;;;1.60;1.25;;;;;;;;;;5073729;28;20386;-83
2023/07/26 09:45:16;;;;;;;1.70;1.30;;;;;;;;;;5073371;28;20605;-82
2023/07/26 09:47:42;;;;;;;2.42;1.20;;;;;;;;;;5055529;28;20055;-84
2023/07/26 09:50:25;;;;;;;1.48;1.20;;;;;;;;;;5088864;28;20495;-83
2023/07/26 09:52:55;;;;;;;3.13;1.42;;;;;;;;;;5055358;28;20025;-83
2023/07/26 09:55:27;;;;;;;2.67;1.45;;;;;;;;;;5072079;28;20042;-83
2023/07/26 09:57:54;;;;;;;1.33;1.23;;;;;;;;;;5072084;28;20024;-83
2023/07/26 10:00:24;;;;;;;2.03;1.65;;;;;;;;;;5071966;28;20039;-83
2023/07/26 10:03:04;;;;;;;1.63;1.25;;;;;;;;;;5071970;28;20039;-82
2023/07/26 10:05:42;;;;;;;6.07;1.70;;;;;;;;;;5072324;28;20356;-82
2023/07/26 10:08:09;;;;;;;2.83;1.60;;;;;;;;;;5055231;28;20032;-82
2023/07/26 10:10:34;;;;;;;3.03;1.77;;;;;;;;;;5071738;28;20492;-82
2023/07/26 10:13:00;;;;;;;2.25;1.80;;;;;;;;;;5072175;28;20029;-83
2023/07/26 10:15:30;;;;;;;3.38;1.58;;;;;;;;;;5074019;28;20464;-82
2023/07/26 10:17:55;;;;;;;2.85;1.63;;;;;;;;;;5077567;28;20033;-82
2023/07/26 10:20:21;;;;;;;2.33;1.60;;;;;;;;;;5059043;28;20090;-82
2023/07/26 10:22:47;;;;;;;4.65;1.50;;;;;;;;;;5076279;28;20033;-82
2023/07/26 10:25:13;;;;;;;1.63;1.30;;;;;;;;;;5076318;28;20021;-82
2023/07/26 10:27:38;;;;;;;1.48;1.38;;;;;;;;;;5077029;28;20067;-82
2023/07/26 10:30:05;;;;;;;1.83;1.40;;;;;;;;;;5077772;28;20032;-82
2023/07/26 10:32:31;;;;;;;1.52;1.38;;;;;;;;;;5075890;28;20048;-82
2023/07/26 10:34:57;;;;;;;1.70;1.42;;;;;;;;;;5076976;28;20033;-82
2023/07/26 10:37:23;;;;;;;2.17;1.40;;;;;;;;;;5075590;28;20028;-82
2023/07/26 10:39:50;;;;;;;1.70;1.30;;;;;;;;;;5075560;28;20032;-83
2023/07/26 10:42:26;;;;;;;2.22;1.23;;;;;;;;;;5075883;28;20021;-82
2023/07/26 10:44:58;;;;;;;2.35;1.58;;;;;;;;;;5075626;28;20103;-83
2023/07/26 10:47:23;;;;;;;3.95;1.25;;;;;;;;;;5075546;28;20020;-82
2023/07/26 10:49:49;;;;;;;2.78;1.80;;;;;;;;;;5076611;28;20034;-82
2023/07/26 10:52:15;;;;;;;1.88;1.50;;;;;;;;;;5076365;28;20486;-82
2023/07/26 10:54:42;;;;;;;1.88;1.55;;;;;;;;;;5075434;28;20029;-83
2023/07/26 10:57:28;;;;;;;3.08;1.80;;;;;;;;;;5058282;28;20020;-82
2023/07/26 11:00:16;;;;;;;2.65;1.73;;;;;;;;;;5076078;28;20089;-82
2023/07/26 11:02:43;;;;;;;2.10;1.60;;;;;;;;;;5076399;28;20025;-82
2023/07/26 11:05:18;;;;;;;4.35;1.48;;;;;;;;;;5076172;28;20020;-82
2023/07/26 11:08:04;;;;;;;4.30;2.05;;;;;;;;;;5075001;28;20391;-83
2023/07/26 11:10:34;;;;;;;2.92;2.10;;;;;;;;;;5075995;28;20048;-82
2023/07/26 11:13:12;;;;;;;2.75;2.00;;;;;;;;;;5058089;28;20040;-82
2023/07/26 11:15:39;;;;;;;2.22;1.70;;;;;;;;;;5075907;28;20060;-82
2023/07/26 11:18:05;;;;;;;2.13;1.48;;;;;;;;;;5076162;28;20024;-82
2023/07/26 11:20:30;;;;;;;2.63;1.50;;;;;;;;;;5074592;28;20029;-82
2023/07/26 11:22:55;;;;;;;2.05;1.40;;;;;;;;;;5074579;28;20036;-82
2023/07/26 11:25:21;;;;;;;2.55;1.55;;;;;;;;;;5075531;28;20025;-82
2023/07/26 11:27:48;;;;;;;2.30;1.58;;;;;;;;;;5075860;28;20052;-83
2023/07/26 11:30:14;;;;;;;3.35;1.40;;;;;;;;;;5074533;28;20052;-83
2023/07/26 11:32:44;;;;;;;1.45;1.35;;;;;;;;;;5076273;28;20025;-83
2023/07/26 11:35:10;;;;;;;1.75;1.45;;;;;;;;;;5074316;28;20028;-82
2023/07/26 11:37:35;;;;;;;2.08;1.48;;;;;;;;;;5057636;28;20032;-82
2023/07/26 11:40:03;;;;;;;2.15;1.45;;;;;;;;;;5057494;28;20028;-83
2023/07/26 11:42:28;;;;;;;2.08;1.33;;;;;;;;;;5075419;28;20111;-83
2023/07/26 11:44:54;;;;;;;2.75;1.50;;;;;;;;;;5074251;28;20111;-83
2023/07/26 11:47:19;;;;;;;2.47;1.63;;;;;;;;;;5077202;28;20043;-83
2023/07/26 11:49:44;;;;;;;3.08;1.83;;;;;;;;;;5074193;28;20447;-82
2023/07/26 11:52:14;;;;;;;1.40;1.20;;;;;;;;;;5057408;28;20055;-83
2023/07/26 11:54:59;;;;;;;2.33;1.60;;;;;;;;;;5075542;28;20054;-83
2023/07/26 11:57:28;;;;;;;2.03;1.50;;;;;;;;;;5074045;28;20024;-83
2023/07/26 11:59:55;;;;;;;1.85;1.60;;;;;;;;;;5074379;28;20116;-83
2023/07/26 12:02:22;;;;;;;3.53;1.40;;;;;;;;;;5073924;28;20488;-83
2023/07/26 12:05:19;;;;;;;2.42;1.60;;;;;;;;;;5073853;28;20104;-83
2023/07/26 12:07:55;;;;;;;1.50;1.40;;;;;;;;;;5075143;28;20534;-84
2023/07/26 12:10:28;;;;;;;2.88;1.50;;;;;;;;;;5073615;28;20020;-83
2023/07/26 12:12:53;;;;;;;3.78;1.50;;;;;;;;;;5073958;28;20528;-83
2023/07/26 12:15:19;;;;;;;1.98;1.77;;;;;;;;;;5056805;28;20036;-83
2023/07/26 12:18:01;;;;;;;1.85;1.52;;;;;;;;;;5075141;28;20033;-83
2023/07/26 12:20:29;;;;;;;1.52;1.40;;;;;;;;;;5073376;28;20029;-83
2023/07/26 12:22:58;;;;;;;2.67;1.40;;;;;;;;;;5074934;28;20055;-83
2023/07/26 12:25:35;;;;;;;1.98;1.52;;;;;;;;;;5056686;28;20039;-83
2023/07/26 12:28:01;;;;;;;1.95;1.70;;;;;;;;;;5074797;28;20028;-83
2023/07/26 12:30:27;;;;;;;3.60;1.88;;;;;;;;;;5073253;28;20061;-83
2023/07/26 12:33:14;;;;;;;2.85;1.60;;;;;;;;;;5074414;28;20032;-83
2023/07/26 12:35:44;;;;;;;1.58;1.45;;;;;;;;;;5056512;28;20058;-83
2023/07/26 12:38:10;;;;;;;2.65;1.48;;;;;;;;;;5055915;28;20025;-83
2023/07/26 12:40:35;;;;;;;1.70;1.60;;;;;;;;;;5073164;28;20360;-82
2023/07/26 12:43:21;;;;;;;2.25;1.70;;;;;;;;;;5074903;28;20040;-83
2023/07/26 12:45:46;;;;;;;2.55;1.70;;;;;;;;;;5074203;28;20028;-82
2023/07/26 12:48:12;;;;;;;1.88;1.50;;;;;;;;;;5072923;28;20490;-82
2023/07/26 12:50:39;;;;;;;2.55;1.63;;;;;;;;;;5073175;28;20028;-82
2023/07/26 12:53:06;;;;;;;1.60;1.50;;;;;;;;;;5073042;28;20029;-82
2023/07/26 12:55:32;;;;;;;2.28;1.58;;;;;;;;;;5074469;28;20032;-83
2023/07/26 12:57:57;;;;;;;2.22;1.50;;;;;;;;;;5072746;28;20037;-83
2023/07/26 13:00:23;;;;;;;2.72;1.67;;;;;;;;;;5072685;28;20154;-83
2023/07/26 13:02:48;;;;;;;2.33;1.50;;;;;;;;;;5074218;28;20083;-83
2023/07/26 13:05:14;;;;;;;1.75;1.52;;;;;;;;;;5056610;28;20036;-82
2023/07/26 13:07:39;;;;;;;2.05;1.52;;;;;;;;;;5055972;28;20458;-83
2023/07/26 13:10:05;;;;;;;1.88;1.65;;;;;;;;;;5072849;28;20028;-83
2023/07/26 13:12:30;;;;;;;3.28;1.65;;;;;;;;;;5073539;28;20091;-83
2023/07/26 13:14:56;;;;;;;2.58;1.65;;;;;;;;;;5072710;28;20075;-83
2023/07/26 13:17:21;;;;;;;2.00;1.50;;;;;;;;;;5072581;28;20032;-83
2023/07/26 13:19:47;;;;;;;1.42;1.33;;;;;;;;;;5055685;28;20115;-83
2023/07/26 13:22:12;;;;;;;2.00;1.50;;;;;;;;;;5073574;28;20020;-83
2023/07/26 13:24:38;;;;;;;1.55;1.45;;;;;;;;;;5072348;28;20467;-82
2023/07/26 13:27:04;;;;;;;2.08;1.55;;;;;;;;;;5073851;28;20074;-83
2023/07/26 13:29:29;;;;;;;2.88;1.60;;;;;;;;;;5072320;28;20037;-83
2023/07/26 13:31:54;;;;;;;2.33;1.70;;;;;;;;;;5072840;28;20028;-83
2023/07/26 13:34:20;;;;;;;2.05;1.30;;;;;;;;;;5073808;28;20033;-83
2023/07/26 13:36:45;;;;;;;3.17;1.52;;;;;;;;;;5072474;28;20487;-83
2023/07/26 13:39:10;;;;;;;1.70;1.50;;;;;;;;;;5072298;28;20134;-83
2023/07/26 13:41:36;;;;;;;2.60;1.38;;;;;;;;;;5072451;28;20058;-82
2023/07/26 13:44:01;;;;;;;2.50;1.67;;;;;;;;;;5072510;28;20410;-83
2023/07/26 13:46:27;;;;;;;1.45;1.35;;;;;;;;;;5072431;28;20078;-83
2023/07/26 13:48:52;;;;;;;1.40;1.25;;;;;;;;;;5073176;28;20032;-82
2023/07/26 13:51:17;;;;;;;3.38;1.55;;;;;;;;;;5072072;28;20427;-83
2023/07/26 13:53:43;;;;;;;2.58;1.80;;;;;;;;;;5072671;28;20052;-83
2023/07/26 13:56:08;;;;;;;2.10;1.42;;;;;;;;;;5073638;28;20382;-82
2023/07/26 13:58:33;;;;;;;3.40;1.70;;;;;;;;;;5072287;28;20067;-83
2023/07/26 14:00:59;;;;;;;3.90;1.70;;;;;;;;;;5073937;28;20115;-83
2023/07/26 14:03:26;;;;;;;3.10;1.70;;;;;;;;;;5073446;28;20460;-83
2023/07/26 14:05:51;;;;;;;2.40;1.40;;;;;;;;;;5072014;28;20036;-83
2023/07/26 14:08:16;;;;;;;3.20;1.50;;;;;;;;;;5071901;28;20387;-83
2023/07/26 14:10:42;;;;;;;1.70;1.40;;;;;;;;;;5054971;28;20044;-82
2023/07/26 14:13:07;;;;;;;3.47;1.70;;;;;;;;;;5055135;28;20056;-83
2023/07/26 14:15:33;;;;;;;3.58;1.50;;;;;;;;;;5073281;28;20021;-83
2023/07/26 14:17:58;;;;;;;1.92;1.70;;;;;;;;;;5073349;28;20070;-83
2023/07/26 14:20:23;;;;;;;1.83;1.55;;;;;;;;;;5073053;28;20123;-83
2023/07/26 14:22:49;;;;;;;3.58;1.77;;;;;;;;;;5071921;28;20029;-83
2023/07/26 14:25:14;;;;;;;2.63;1.73;;;;;;;;;;5075416;28;20112;-82
2023/07/26 14:27:40;;;;;;;2.38;1.40;;;;;;;;;;5071818;28;20032;-83
2023/07/26 14:30:06;;;;;;;2.78;1.80;;;;;;;;;;5073329;28;20070;-82
2023/07/26 14:32:31;;;;;;;6.40;1.55;;;;;;;;;;5055011;28;20424;-83
2023/07/26 14:34:57;;;;;;;3.95;2.22;;;;;;;;;;5071804;28;20135;-83
2023/07/26 14:37:22;;;;;;;1.55;1.40;;;;;;;;;;5071969;28;20029;-83
2023/07/26 14:39:48;;;;;;;1.95;1.55;;;;;;;;;;5073306;28;20471;-83